sensor_id;sensor_type;location;lat;lon;timestamp;pressure;altitude;pressure_sealevel;temperature;humidity
73267;BME280;61495;53.400;7.608;2023-05-20T00:00:45;102710.44;;;11.32;72.83
73267;BME280;61495;53.400;7.608;2023-05-20T00:03:15;102702.06;;;11.27;71.92
73267;BME280;61495;53.400;7.608;2023-05-20T00:05:40;102702.06;;;11.27;72.04
73267;BME280;61495;53.400;7.608;2023-05-20T00:08:06;102700.69;;;11.23;71.63
73267;BME280;61495;53.400;7.608;2023-05-20T00:10:34;102708.59;;;11.25;72.14
73267;BME280;61495;53.400;7.608;2023-05-20T00:13:00;102709.78;;;11.22;73.20
73267;BME280;61495;53.400;7.608;2023-05-20T00:15:25;102702.06;;;11.19;72.05
73267;BME280;61495;53.400;7.608;2023-05-20T00:17:51;102694.81;;;11.20;71.57
73267;BME280;61495;53.400;7.608;2023-05-20T00:20:16;102688.28;;;11.14;72.50
73267;BME280;61495;53.400;7.608;2023-05-20T00:22:42;102684.59;;;11.15;73.75
73267;BME280;61495;53.400;7.608;2023-05-20T00:25:07;102683.94;;;11.13;74.28
73267;BME280;61495;53.400;7.608;2023-05-20T00:27:33;102688.78;;;11.09;72.55
73267;BME280;61495;53.400;7.608;2023-05-20T00:29:58;102692.31;;;11.10;73.68
73267;BME280;61495;53.400;7.608;2023-05-20T00:32:26;102699.34;;;11.11;73.59
73267;BME280;61495;53.400;7.608;2023-05-20T00:34:58;102700.50;;;11.08;73.30
73267;BME280;61495;53.400;7.608;2023-05-20T00:37:24;102697.31;;;11.05;72.69
73267;BME280;61495;53.400;7.608;2023-05-20T00:39:50;102692.78;;;11.05;74.07
73267;BME280;61495;53.400;7.608;2023-05-20T00:42:25;102686.25;;;11.00;73.71
73267;BME280;61495;53.400;7.608;2023-05-20T00:44:52;102690.28;;;11.04;74.49
73267;BME280;61495;53.400;7.608;2023-05-20T00:47:19;102685.25;;;11.01;72.65
73267;BME280;61495;53.400;7.608;2023-05-20T00:49:45;102688.94;;;11.00;73.20
73267;BME280;61495;53.400;7.608;2023-05-20T00:52:11;102688.94;;;11.00;73.90
73267;BME280;61495;53.400;7.608;2023-05-20T00:54:39;102687.22;;;10.99;72.91
73267;BME280;61495;53.400;7.608;2023-05-20T00:57:06;102679.03;;;11.00;73.83
73267;BME280;61495;53.400;7.608;2023-05-20T00:59:34;102676.69;;;10.97;74.23
73267;BME280;61495;53.400;7.608;2023-05-20T01:02:01;102678.53;;;10.97;73.82
73267;BME280;61495;53.400;7.608;2023-05-20T01:04:30;102683.22;;;10.95;74.66
73267;BME280;61495;53.400;7.608;2023-05-20T01:06:57;102690.94;;;10.98;74.20
73267;BME280;61495;53.400;7.608;2023-05-20T01:09:24;102690.09;;;10.97;74.44
73267;BME280;61495;53.400;7.608;2023-05-20T01:12:09;102684.22;;;10.94;74.35
73267;BME280;61495;53.400;7.608;2023-05-20T01:14:42;102689.25;;;10.97;74.62
73267;BME280;61495;53.400;7.608;2023-05-20T01:17:11;102680.88;;;10.92;73.89
73267;BME280;61495;53.400;7.608;2023-05-20T01:19:42;102681.38;;;10.95;75.14
73267;BME280;61495;53.400;7.608;2023-05-20T01:22:11;102678.53;;;10.97;74.14
73267;BME280;61495;53.400;7.608;2023-05-20T01:24:46;102676.84;;;10.96;75.56
73267;BME280;61495;53.400;7.608;2023-05-20T01:27:18;102670.81;;;10.94;74.43
73267;BME280;61495;53.400;7.608;2023-05-20T01:29:44;102679.38;;;10.97;76.10
73267;BME280;61495;53.400;7.608;2023-05-20T01:32:30;102671.47;;;10.96;74.58
73267;BME280;61495;53.400;7.608;2023-05-20T01:34:57;102670.47;;;10.97;74.95
73267;BME280;61495;53.400;7.608;2023-05-20T01:37:24;102668.63;;;10.97;75.17
73267;BME280;61495;53.400;7.608;2023-05-20T01:39:52;102667.81;;;10.97;74.92
73267;BME280;61495;53.400;7.608;2023-05-20T01:42:18;102666.63;;;10.99;75.30
73267;BME280;61495;53.400;7.608;2023-05-20T01:44:45;102669.63;;;10.96;74.95
73267;BME280;61495;53.400;7.608;2023-05-20T01:47:10;102661.44;;;10.98;74.50
73267;BME280;61495;53.400;7.608;2023-05-20T01:49:36;102663.94;;;10.99;74.57
73267;BME280;61495;53.400;7.608;2023-05-20T01:52:01;102675.03;;;11.04;75.58
73267;BME280;61495;53.400;7.608;2023-05-20T01:54:27;102663.78;;;11.01;75.00
73267;BME280;61495;53.400;7.608;2023-05-20T01:56:52;102668.84;;;11.04;75.20
73267;BME280;61495;53.400;7.608;2023-05-20T01:59:18;102669.50;;;11.06;73.59
73267;BME280;61495;53.400;7.608;2023-05-20T02:01:43;102672.19;;;11.06;73.44
73267;BME280;61495;53.400;7.608;2023-05-20T02:04:18;102674.84;;;11.06;73.36
73267;BME280;61495;53.400;7.608;2023-05-20T02:06:44;102678.19;;;11.08;73.20
73267;BME280;61495;53.400;7.608;2023-05-20T02:09:10;102675.84;;;11.05;73.38
73267;BME280;61495;53.400;7.608;2023-05-20T02:11:35;102670.50;;;11.05;72.53
73267;BME280;61495;53.400;7.608;2023-05-20T02:14:01;102674.00;;;11.05;72.27
73267;BME280;61495;53.400;7.608;2023-05-20T02:16:26;102675.84;;;11.05;72.48
73267;BME280;61495;53.400;7.608;2023-05-20T02:18:51;102681.72;;;11.08;73.07
73267;BME280;61495;53.400;7.608;2023-05-20T02:21:17;102681.91;;;11.07;72.55
73267;BME280;61495;53.400;7.608;2023-05-20T02:23:42;102672.34;;;11.04;72.14
73267;BME280;61495;53.400;7.608;2023-05-20T02:26:07;102673.34;;;11.03;72.20
73267;BME280;61495;53.400;7.608;2023-05-20T02:28:33;102672.84;;;11.00;72.40
73267;BME280;61495;53.400;7.608;2023-05-20T02:30:58;102677.03;;;11.02;71.49
73267;BME280;61495;53.400;7.608;2023-05-20T02:33:29;102681.41;;;11.03;71.59
73267;BME280;61495;53.400;7.608;2023-05-20T02:35:54;102668.31;;;11.00;71.04
73267;BME280;61495;53.400;7.608;2023-05-20T02:38:19;102678.72;;;11.03;70.73
73267;BME280;61495;53.400;7.608;2023-05-20T02:40:46;102675.84;;;11.05;71.53
73267;BME280;61495;53.400;7.608;2023-05-20T02:43:11;102668.84;;;11.04;71.07
73267;BME280;61495;53.400;7.608;2023-05-20T02:45:36;102659.75;;;10.97;71.64
73267;BME280;61495;53.400;7.608;2023-05-20T02:48:02;102665.44;;;11.02;71.30
73267;BME280;61495;53.400;7.608;2023-05-20T02:50:27;102665.44;;;11.02;70.79
73267;BME280;61495;53.400;7.608;2023-05-20T02:52:52;102668.31;;;11.00;70.84
73267;BME280;61495;53.400;7.608;2023-05-20T02:55:18;102670.81;;;11.02;70.32
73267;BME280;61495;53.400;7.608;2023-05-20T02:57:43;102676.19;;;11.02;70.25
73267;BME280;61495;53.400;7.608;2023-05-20T03:00:09;102681.22;;;11.05;70.45
73267;BME280;61495;53.400;7.608;2023-05-20T03:02:35;102682.56;;;11.01;70.46
73267;BME280;61495;53.400;7.608;2023-05-20T03:05:01;102681.22;;;11.05;69.77
73267;BME280;61495;53.400;7.608;2023-05-20T03:07:28;102683.91;;;11.05;69.71
73267;BME280;61495;53.400;7.608;2023-05-20T03:09:53;102687.44;;;11.05;70.10
73267;BME280;61495;53.400;7.608;2023-05-20T03:12:19;102680.56;;;11.03;70.01
73267;BME280;61495;53.400;7.608;2023-05-20T03:14:44;102692.97;;;11.04;69.55
73267;BME280;61495;53.400;7.608;2023-05-20T03:17:09;102684.94;;;11.04;69.51
73267;BME280;61495;53.400;7.608;2023-05-20T03:19:35;102688.44;;;11.04;69.68
73267;BME280;61495;53.400;7.608;2023-05-20T03:22:01;102674.53;;;11.01;69.52
73267;BME280;61495;53.400;7.608;2023-05-20T03:24:27;102678.06;;;11.01;69.70
73267;BME280;61495;53.400;7.608;2023-05-20T03:26:52;102669.16;;;11.01;68.84
73267;BME280;61495;53.400;7.608;2023-05-20T03:29:18;102674.84;;;10.98;69.28
73267;BME280;61495;53.400;7.608;2023-05-20T03:31:43;102679.03;;;11.00;69.11
73267;BME280;61495;53.400;7.608;2023-05-20T03:34:09;102673.81;;;10.99;69.02
73267;BME280;61495;53.400;7.608;2023-05-20T03:36:34;102678.53;;;10.97;69.14
73267;BME280;61495;53.400;7.608;2023-05-20T03:38:59;102677.88;;;10.95;69.33
73267;BME280;61495;53.400;7.608;2023-05-20T03:41:26;102683.38;;;10.93;68.83
73267;BME280;61495;53.400;7.608;2023-05-20T03:43:51;102678.50;;;10.89;69.15
73267;BME280;61495;53.400;7.608;2023-05-20T03:46:17;102669.09;;;10.85;68.71
73267;BME280;61495;53.400;7.608;2023-05-20T03:48:42;102673.47;;;10.86;68.08
73267;BME280;61495;53.400;7.608;2023-05-20T03:51:07;102674.47;;;10.85;68.26
73267;BME280;61495;53.400;7.608;2023-05-20T03:53:33;102671.78;;;10.85;68.19
73267;BME280;61495;53.400;7.608;2023-05-20T03:55:58;102673.81;;;10.83;67.92
73267;BME280;61495;53.400;7.608;2023-05-20T03:58:23;102678.19;;;10.84;67.73
73267;BME280;61495;53.400;7.608;2023-05-20T04:00:50;102675.13;;;10.79;67.91
73267;BME280;61495;53.400;7.608;2023-05-20T04:03:15;102675.63;;;10.74;67.99
73267;BME280;61495;53.400;7.608;2023-05-20T04:05:41;102686.50;;;10.73;67.90
73267;BME280;61495;53.400;7.608;2023-05-20T04:08:06;102683.16;;;10.71;67.92
73267;BME280;61495;53.400;7.608;2023-05-20T04:10:34;102676.09;;;10.70;68.30
73267;BME280;61495;53.400;7.608;2023-05-20T04:12:59;102676.06;;;10.62;68.47
73267;BME280;61495;53.400;7.608;2023-05-20T04:15:25;102674.56;;;10.59;68.18
73267;BME280;61495;53.400;7.608;2023-05-20T04:17:51;102682.44;;;10.60;68.38
73267;BME280;61495;53.400;7.608;2023-05-20T04:20:17;102695.69;;;10.62;68.52
73267;BME280;61495;53.400;7.608;2023-05-20T04:22:43;102686.13;;;10.59;68.04
73267;BME280;61495;53.400;7.608;2023-05-20T04:25:10;102686.13;;;10.59;68.06
73267;BME280;61495;53.400;7.608;2023-05-20T04:27:35;102681.09;;;10.56;68.61
73267;BME280;61495;53.400;7.608;2023-05-20T04:30:05;102689.78;;;10.58;68.48
73267;BME280;61495;53.400;7.608;2023-05-20T04:32:40;102688.09;;;10.57;68.87
73267;BME280;61495;53.400;7.608;2023-05-20T04:35:05;102686.78;;;10.53;68.40
73267;BME280;61495;53.400;7.608;2023-05-20T04:37:36;102695.47;;;10.55;68.45
73267;BME280;61495;53.400;7.608;2023-05-20T04:40:02;102682.25;;;10.54;68.48
73267;BME280;61495;53.400;7.608;2023-05-20T04:42:31;102699.34;;;10.61;68.34
73267;BME280;61495;53.400;7.608;2023-05-20T04:44:57;102696.84;;;10.59;68.49
73267;BME280;61495;53.400;7.608;2023-05-20T04:47:26;102683.78;;;10.56;68.55
73267;BME280;61495;53.400;7.608;2023-05-20T04:49:52;102679.41;;;10.55;69.46
73267;BME280;61495;53.400;7.608;2023-05-20T04:52:17;102691.81;;;10.56;69.13
73267;BME280;61495;53.400;7.608;2023-05-20T04:54:43;102701.72;;;10.64;68.81
73267;BME280;61495;53.400;7.608;2023-05-20T04:57:08;102694.84;;;10.70;69.05
73267;BME280;61495;53.400;7.608;2023-05-20T04:59:33;102692.56;;;10.75;69.33
73267;BME280;61495;53.400;7.608;2023-05-20T05:01:59;102694.94;;;10.86;69.44
73267;BME280;61495;53.400;7.608;2023-05-20T05:04:24;102684.88;;;10.96;68.78
73267;BME280;61495;53.400;7.608;2023-05-20T05:06:50;102678.19;;;11.08;69.30
73267;BME280;61495;53.400;7.608;2023-05-20T05:09:15;102686.16;;;11.34;68.14
73267;BME280;61495;53.400;7.608;2023-05-20T05:11:41;102690.31;;;11.52;67.70
73267;BME280;61495;53.400;7.608;2023-05-20T05:14:06;102690.50;;;11.67;67.63
73267;BME280;61495;53.400;7.608;2023-05-20T05:16:31;102694.56;;;11.87;66.77
73267;BME280;61495;53.400;7.608;2023-05-20T05:18:57;102679.09;;;12.05;66.70
73267;BME280;61495;53.400;7.608;2023-05-20T05:21:22;102683.41;;;12.22;66.99
73267;BME280;61495;53.400;7.608;2023-05-20T05:23:47;102688.72;;;12.39;66.23
73267;BME280;61495;53.400;7.608;2023-05-20T05:26:13;102674.13;;;12.72;65.88
73267;BME280;61495;53.400;7.608;2023-05-20T05:28:40;102687.72;;;12.78;65.16
73267;BME280;61495;53.400;7.608;2023-05-20T05:31:06;102686.81;;;12.94;64.75
73267;BME280;61495;53.400;7.608;2023-05-20T05:33:32;102684.16;;;13.17;63.67
73267;BME280;61495;53.400;7.608;2023-05-20T05:35:57;102691.69;;;13.21;63.38
73267;BME280;61495;53.400;7.608;2023-05-20T05:38:23;102690.81;;;13.29;62.84
73267;BME280;61495;53.400;7.608;2023-05-20T05:40:49;102690.03;;;13.43;63.16
73267;BME280;61495;53.400;7.608;2023-05-20T05:43:14;102686.91;;;13.54;62.72
73267;BME280;61495;53.400;7.608;2023-05-20T05:45:39;102679.69;;;13.69;62.13
73267;BME280;61495;53.400;7.608;2023-05-20T05:48:06;102683.38;;;13.91;61.24
73267;BME280;61495;53.400;7.608;2023-05-20T05:50:32;102692.03;;;13.86;60.98
73267;BME280;61495;53.400;7.608;2023-05-20T05:52:57;102684.41;;;14.05;60.81
73267;BME280;61495;53.400;7.608;2023-05-20T05:55:22;102690.16;;;14.02;60.86
73267;BME280;61495;53.400;7.608;2023-05-20T05:57:48;102699.97;;;14.17;60.51
73267;BME280;61495;53.400;7.608;2023-05-20T06:00:13;102681.28;;;14.16;59.81
73267;BME280;61495;53.400;7.608;2023-05-20T06:02:42;102689.66;;;14.21;59.78
73267;BME280;61495;53.400;7.608;2023-05-20T06:05:08;102683.97;;;14.30;59.71
73267;BME280;61495;53.400;7.608;2023-05-20T06:07:33;102678.53;;;14.38;59.23
73267;BME280;61495;53.400;7.608;2023-05-20T06:09:59;102675.69;;;14.61;59.45
73267;BME280;61495;53.400;7.608;2023-05-20T06:12:24;102678.88;;;14.50;58.84
73267;BME280;61495;53.400;7.608;2023-05-20T06:14:49;102677.06;;;14.86;58.72
73267;BME280;61495;53.400;7.608;2023-05-20T06:17:15;102679.13;;;14.84;59.08
73267;BME280;61495;53.400;7.608;2023-05-20T06:19:40;102684.22;;;15.15;58.53
73267;BME280;61495;53.400;7.608;2023-05-20T06:22:05;102685.31;;;15.21;57.95
73267;BME280;61495;53.400;7.608;2023-05-20T06:24:32;102691.56;;;15.21;57.61
73267;BME280;61495;53.400;7.608;2023-05-20T06:26:58;102690.28;;;15.17;57.50
73267;BME280;61495;53.400;7.608;2023-05-20T06:29:23;102686.75;;;15.38;57.77
73267;BME280;61495;53.400;7.608;2023-05-20T06:31:48;102692.81;;;15.40;57.59
73267;BME280;61495;53.400;7.608;2023-05-20T06:34:14;102684.59;;;15.48;56.50
73267;BME280;61495;53.400;7.608;2023-05-20T06:36:40;102687.59;;;15.60;57.19
73267;BME280;61495;53.400;7.608;2023-05-20T06:39:05;102682.66;;;15.63;57.04
73267;BME280;61495;53.400;7.608;2023-05-20T06:41:37;102685.91;;;15.80;56.72
73267;BME280;61495;53.400;7.608;2023-05-20T06:44:02;102694.97;;;15.93;56.53
73267;BME280;61495;53.400;7.608;2023-05-20T06:46:27;102690.84;;;15.97;56.10
73267;BME280;61495;53.400;7.608;2023-05-20T06:48:53;102683.06;;;15.88;56.28
73267;BME280;61495;53.400;7.608;2023-05-20T06:51:18;102677.69;;;16.22;56.57
73267;BME280;61495;53.400;7.608;2023-05-20T06:53:43;102675.41;;;16.60;56.16
73267;BME280;61495;53.400;7.608;2023-05-20T06:56:09;102681.66;;;16.60;55.63
73267;BME280;61495;53.400;7.608;2023-05-20T06:58:34;102683.50;;;16.53;55.16
73267;BME280;61495;53.400;7.608;2023-05-20T07:00:59;102677.19;;;16.87;55.45
73267;BME280;61495;53.400;7.608;2023-05-20T07:03:25;102667.22;;;16.94;55.31
73267;BME280;61495;53.400;7.608;2023-05-20T07:05:50;102670.13;;;16.86;54.08
73267;BME280;61495;53.400;7.608;2023-05-20T07:08:16;102677.84;;;16.89;54.36
73267;BME280;61495;53.400;7.608;2023-05-20T07:10:41;102678.22;;;16.80;53.92
73267;BME280;61495;53.400;7.608;2023-05-20T07:13:07;102673.84;;;16.85;54.25
73267;BME280;61495;53.400;7.608;2023-05-20T07:15:32;102675.16;;;17.02;54.13
73267;BME280;61495;53.400;7.608;2023-05-20T07:17:58;102685.63;;;17.18;53.99
73267;BME280;61495;53.400;7.608;2023-05-20T07:20:23;102674.75;;;17.05;53.83
73267;BME280;61495;53.400;7.608;2023-05-20T07:22:48;102677.25;;;17.13;53.85
73267;BME280;61495;53.400;7.608;2023-05-20T07:25:15;102668.56;;;17.25;54.25
73267;BME280;61495;53.400;7.608;2023-05-20T07:27:40;102666.66;;;17.32;53.13
73267;BME280;61495;53.400;7.608;2023-05-20T07:30:06;102663.59;;;17.67;53.52
73267;BME280;61495;53.400;7.608;2023-05-20T07:32:32;102655.03;;;17.77;53.67
73267;BME280;61495;53.400;7.608;2023-05-20T07:34:58;102647.13;;;17.69;53.17
73267;BME280;61495;53.400;7.608;2023-05-20T07:37:23;102654.00;;;17.78;52.53
73267;BME280;61495;53.400;7.608;2023-05-20T07:39:48;102646.50;;;17.87;52.94
73267;BME280;61495;53.400;7.608;2023-05-20T07:42:14;102644.81;;;17.99;52.83
73267;BME280;61495;53.400;7.608;2023-05-20T07:44:39;102648.97;;;17.88;52.04
73267;BME280;61495;53.400;7.608;2023-05-20T07:47:05;102649.59;;;17.97;52.18
73267;BME280;61495;53.400;7.608;2023-05-20T07:49:30;102631.84;;;18.07;52.02
73267;BME280;61495;53.400;7.608;2023-05-20T07:51:56;102631.84;;;18.07;52.25
73267;BME280;61495;53.400;7.608;2023-05-20T07:54:22;102627.59;;;18.38;52.87
73267;BME280;61495;53.400;7.608;2023-05-20T07:56:47;102633.78;;;18.45;52.43
73267;BME280;61495;53.400;7.608;2023-05-20T07:59:12;102624.28;;;18.22;51.55
73267;BME280;61495;53.400;7.608;2023-05-20T08:01:40;102632.16;;;18.44;51.64
73267;BME280;61495;53.400;7.608;2023-05-20T08:04:06;102634.81;;;18.57;51.81
73267;BME280;61495;53.400;7.608;2023-05-20T08:06:31;102631.31;;;18.50;50.96
73267;BME280;61495;53.400;7.608;2023-05-20T08:08:57;102623.81;;;18.39;51.18
73267;BME280;61495;53.400;7.608;2023-05-20T08:11:23;102628.75;;;18.61;51.65
73267;BME280;61495;53.400;7.608;2023-05-20T08:13:48;102617.34;;;18.84;52.24
73267;BME280;61495;53.400;7.608;2023-05-20T08:16:14;102609.75;;;18.99;52.28
73267;BME280;61495;53.400;7.608;2023-05-20T08:18:39;102627.28;;;19.03;50.57
73267;BME280;61495;53.400;7.608;2023-05-20T08:21:05;102625.94;;;19.12;51.29
73267;BME280;61495;53.400;7.608;2023-05-20T08:23:34;102616.66;;;19.26;51.37
73267;BME280;61495;53.400;7.608;2023-05-20T08:26:00;102617.41;;;19.33;51.09
73267;BME280;61495;53.400;7.608;2023-05-20T08:28:30;102615.34;;;19.35;50.69
73267;BME280;61495;53.400;7.608;2023-05-20T08:30:56;102608.91;;;19.30;50.55
73267;BME280;61495;53.400;7.608;2023-05-20T08:33:29;102610.75;;;19.36;50.17
73267;BME280;61495;53.400;7.608;2023-05-20T08:35:54;102611.03;;;19.53;50.28
73267;BME280;61495;53.400;7.608;2023-05-20T08:38:20;102608.53;;;19.51;50.26
73267;BME280;61495;53.400;7.608;2023-05-20T08:40:50;102604.38;;;19.49;50.42
73267;BME280;61495;53.400;7.608;2023-05-20T08:43:16;102606.88;;;19.50;49.32
73267;BME280;61495;53.400;7.608;2023-05-20T08:45:41;102600.31;;;19.58;49.19
73267;BME280;61495;53.400;7.608;2023-05-20T08:48:06;102596.59;;;19.52;49.40
73267;BME280;61495;53.400;7.608;2023-05-20T08:50:32;102596.63;;;19.70;49.07
73267;BME280;61495;53.400;7.608;2023-05-20T08:52:58;102596.72;;;19.82;48.87
73267;BME280;61495;53.400;7.608;2023-05-20T08:55:41;102590.25;;;19.83;48.88
73267;BME280;61495;53.400;7.608;2023-05-20T08:58:06;102587.34;;;19.78;47.57
73267;BME280;61495;53.400;7.608;2023-05-20T09:00:32;102583.28;;;20.05;48.87
73267;BME280;61495;53.400;7.608;2023-05-20T09:03:02;102578.16;;;20.15;48.62
73267;BME280;61495;53.400;7.608;2023-05-20T09:05:28;102575.53;;;20.27;49.21
73267;BME280;61495;53.400;7.608;2023-05-20T09:08:03;102575.56;;;20.20;48.56
73267;BME280;61495;53.400;7.608;2023-05-20T09:10:29;102571.41;;;20.18;48.43
73267;BME280;61495;53.400;7.608;2023-05-20T09:12:55;102576.63;;;20.37;49.04
73267;BME280;61495;53.400;7.608;2023-05-20T09:15:20;102580.72;;;20.46;48.17
73267;BME280;61495;53.400;7.608;2023-05-20T09:17:48;102568.91;;;20.34;48.52
73267;BME280;61495;53.400;7.608;2023-05-20T09:20:14;102574.72;;;20.20;48.15
73267;BME280;61495;53.400;7.608;2023-05-20T09:22:40;102585.50;;;20.33;47.62
73267;BME280;61495;53.400;7.608;2023-05-20T09:25:06;102565.56;;;20.50;48.37
73267;BME280;61495;53.400;7.608;2023-05-20T09:27:32;102570.53;;;20.72;48.13
73267;BME280;61495;53.400;7.608;2023-05-20T09:29:57;102579.56;;;20.54;47.37
73267;BME280;61495;53.400;7.608;2023-05-20T09:32:23;102568.22;;;20.57;47.93
73267;BME280;61495;53.400;7.608;2023-05-20T09:34:52;102575.56;;;20.57;46.63
73267;BME280;61495;53.400;7.608;2023-05-20T09:37:17;102563.34;;;20.59;47.26
73267;BME280;61495;53.400;7.608;2023-05-20T09:39:55;102563.91;;;20.49;47.86
73267;BME280;61495;53.400;7.608;2023-05-20T09:42:25;102561.81;;;20.52;47.05
73267;BME280;61495;53.400;7.608;2023-05-20T09:44:53;102560.47;;;20.42;46.93
73267;BME280;61495;53.400;7.608;2023-05-20T09:47:19;102563.22;;;20.54;47.84
73267;BME280;61495;53.400;7.608;2023-05-20T09:49:45;102555.56;;;20.63;47.94
73267;BME280;61495;53.400;7.608;2023-05-20T09:52:13;102564.22;;;20.41;47.44
73267;BME280;61495;53.400;7.608;2023-05-20T09:54:39;102554.34;;;20.59;47.69
73267;BME280;61495;53.400;7.608;2023-05-20T09:57:06;102549.88;;;20.64;46.78
73267;BME280;61495;53.400;7.608;2023-05-20T09:59:32;102559.22;;;20.57;46.26
73267;BME280;61495;53.400;7.608;2023-05-20T10:01:59;102549.00;;;20.52;46.04
73267;BME280;61495;53.400;7.608;2023-05-20T10:04:25;102554.38;;;20.70;46.49
73267;BME280;61495;53.400;7.608;2023-05-20T10:15:29;102539.81;;;20.65;47.67
73267;BME280;61495;53.400;7.608;2023-05-20T10:20:45;102532.81;;;20.57;48.11
73267;BME280;61495;53.400;7.608;2023-05-20T10:23:19;102519.03;;;20.52;47.88
73267;BME280;61495;53.400;7.608;2023-05-20T10:25:50;102517.06;;;20.59;47.50
73267;BME280;61495;53.400;7.608;2023-05-20T10:28:16;102524.66;;;20.69;48.08
73267;BME280;61495;53.400;7.608;2023-05-20T10:30:49;102520.16;;;20.63;47.96
73267;BME280;61495;53.400;7.608;2023-05-20T10:33:16;102511.72;;;20.64;48.30
73267;BME280;61495;53.400;7.608;2023-05-20T10:35:46;102518.13;;;20.70;47.84
73267;BME280;61495;53.400;7.608;2023-05-20T10:38:12;102499.66;;;20.60;48.74
73267;BME280;61495;53.400;7.608;2023-05-20T10:40:38;102512.31;;;20.55;48.34
73267;BME280;61495;53.400;7.608;2023-05-20T10:43:10;102500.19;;;20.39;48.67
73267;BME280;61495;53.400;7.608;2023-05-20T10:45:47;102492.38;;;20.42;48.04
73267;BME280;61495;53.400;7.608;2023-05-20T10:48:40;102501.78;;;20.28;46.96
73267;BME280;61495;53.400;7.608;2023-05-20T10:51:12;102505.84;;;20.37;48.35
73267;BME280;61495;53.400;7.608;2023-05-20T10:53:39;102489.16;;;20.34;49.04
73267;BME280;61495;53.400;7.608;2023-05-20T10:56:14;102497.44;;;20.39;48.96
73267;BME280;61495;53.400;7.608;2023-05-20T10:58:40;102492.97;;;20.44;49.69
73267;BME280;61495;53.400;7.608;2023-05-20T11:01:06;102475.22;;;20.42;48.37
73267;BME280;61495;53.400;7.608;2023-05-20T11:03:32;102485.53;;;20.52;48.30
73267;BME280;61495;53.400;7.608;2023-05-20T11:05:59;102481.75;;;20.52;48.40
73267;BME280;61495;53.400;7.608;2023-05-20T11:08:28;102476.38;;;20.46;48.60
73267;BME280;61495;53.400;7.608;2023-05-20T11:10:55;102469.44;;;20.62;49.35
73267;BME280;61495;53.400;7.608;2023-05-20T11:13:21;102481.28;;;20.56;49.37
73267;BME280;61495;53.400;7.608;2023-05-20T11:15:48;102467.16;;;20.47;47.76
73267;BME280;61495;53.400;7.608;2023-05-20T11:18:14;102461.31;;;20.32;48.17
73267;BME280;61495;53.400;7.608;2023-05-20T11:20:39;102461.50;;;20.48;48.99
73267;BME280;61495;53.400;7.608;2023-05-20T11:23:05;102455.28;;;20.30;47.80
73267;BME280;61495;53.400;7.608;2023-05-20T11:25:32;102457.44;;;20.39;47.94
73267;BME280;61495;53.400;7.608;2023-05-20T11:27:58;102467.47;;;20.27;48.24
73267;BME280;61495;53.400;7.608;2023-05-20T11:30:23;102449.97;;;20.17;49.14
73267;BME280;61495;53.400;7.608;2023-05-20T11:32:59;102458.84;;;20.12;48.86
73267;BME280;61495;53.400;7.608;2023-05-20T11:35:27;102444.28;;;20.07;48.95
73267;BME280;61495;53.400;7.608;2023-05-20T11:38:05;102445.69;;;20.09;48.93
73267;BME280;61495;53.400;7.608;2023-05-20T11:40:33;102450.69;;;20.12;48.50
73267;BME280;61495;53.400;7.608;2023-05-20T11:43:00;102444.31;;;20.18;49.13
73267;BME280;61495;53.400;7.608;2023-05-20T11:45:27;102448.22;;;20.22;49.26
73267;BME280;61495;53.400;7.608;2023-05-20T11:48:03;102433.31;;;20.13;48.65
73267;BME280;61495;53.400;7.608;2023-05-20T11:50:39;102450.13;;;20.22;48.10
73267;BME280;61495;53.400;7.608;2023-05-20T11:53:07;102440.25;;;20.09;48.46
73267;BME280;61495;53.400;7.608;2023-05-20T11:55:34;102440.38;;;20.14;48.00
73267;BME280;61495;53.400;7.608;2023-05-20T11:58:08;102439.66;;;20.07;47.72
73267;BME280;61495;53.400;7.608;2023-05-20T12:00:33;102426.66;;;20.09;48.33
73267;BME280;61495;53.400;7.608;2023-05-20T12:03:02;102429.88;;;19.88;46.86
73267;BME280;61495;53.400;7.608;2023-05-20T12:05:27;102410.63;;;19.71;46.96
73267;BME280;61495;53.400;7.608;2023-05-20T12:07:52;102416.22;;;19.76;47.08
73267;BME280;61495;53.400;7.608;2023-05-20T12:10:18;102421.13;;;19.86;47.92
73267;BME280;61495;53.400;7.608;2023-05-20T12:12:43;102413.69;;;19.75;46.64
73267;BME280;61495;53.400;7.608;2023-05-20T12:15:09;102418.22;;;19.81;47.70
73267;BME280;61495;53.400;7.608;2023-05-20T12:17:50;102406.53;;;19.80;46.98
73267;BME280;61495;53.400;7.608;2023-05-20T12:20:17;102413.09;;;19.91;47.27
73267;BME280;61495;53.400;7.608;2023-05-20T12:22:43;102428.19;;;19.87;48.00
73267;BME280;61495;53.400;7.608;2023-05-20T12:25:14;102406.44;;;19.87;47.32
73267;BME280;61495;53.400;7.608;2023-05-20T12:27:43;102406.31;;;19.64;46.42
73267;BME280;61495;53.400;7.608;2023-05-20T12:30:14;102409.09;;;19.75;47.04
73267;BME280;61495;53.400;7.608;2023-05-20T12:32:46;102393.75;;;19.81;46.42
73267;BME280;61495;53.400;7.608;2023-05-20T12:35:12;102397.59;;;19.91;47.05
73267;BME280;61495;53.400;7.608;2023-05-20T12:37:38;102404.03;;;19.79;45.76
73267;BME280;61495;53.400;7.608;2023-05-20T12:40:06;102388.63;;;19.73;46.54
73267;BME280;61495;53.400;7.608;2023-05-20T12:42:38;102392.84;;;19.69;46.47
73267;BME280;61495;53.400;7.608;2023-05-20T12:45:04;102393.59;;;19.76;47.27
73267;BME280;61495;53.400;7.608;2023-05-20T12:47:31;102396.94;;;19.78;47.29
73267;BME280;61495;53.400;7.608;2023-05-20T12:49:56;102390.56;;;19.84;47.26
73267;BME280;61495;53.400;7.608;2023-05-20T12:52:22;102385.78;;;19.68;46.91
73267;BME280;61495;53.400;7.608;2023-05-20T12:54:47;102389.09;;;19.70;46.83
73267;BME280;61495;53.400;7.608;2023-05-20T12:57:13;102404.56;;;19.69;47.77
73267;BME280;61495;53.400;7.608;2023-05-20T12:59:38;102373.69;;;19.64;47.41